sensor_id;sensor_type;location;lat;lon;timestamp;temperature;humidity
67974;DHT22;54756;51.140;6.952;2022-09-09T00:01:32;16.30;71.70
67974;DHT22;54756;51.140;6.952;2022-09-09T00:04:02;16.20;72.50
67974;DHT22;54756;51.140;6.952;2022-09-09T00:06:21;16.10;73.50
67974;DHT22;54756;51.140;6.952;2022-09-09T00:08:35;16.10;73.50
67974;DHT22;54756;51.140;6.952;2022-09-09T00:10:39;16.10;74.70
67974;DHT22;54756;51.140;6.952;2022-09-09T00:15:00;16.00;75.20
67974;DHT22;54756;51.140;6.952;2022-09-09T00:17:53;15.90;75.50
67974;DHT22;54756;51.140;6.952;2022-09-09T00:19:43;15.90;75.80
67974;DHT22;54756;51.140;6.952;2022-09-09T00:24:29;15.80;76.90
67974;DHT22;54756;51.140;6.952;2022-09-09T00:26:37;15.70;77.10
67974;DHT22;54756;51.140;6.952;2022-09-09T00:30:52;15.70;77.70
67974;DHT22;54756;51.140;6.952;2022-09-09T00:32:58;15.60;78.10
67974;DHT22;54756;51.140;6.952;2022-09-09T00:35:04;15.70;79.20
67974;DHT22;54756;51.140;6.952;2022-09-09T00:37:18;15.80;80.20
67974;DHT22;54756;51.140;6.952;2022-09-09T00:39:34;15.90;80.60
67974;DHT22;54756;51.140;6.952;2022-09-09T00:42:18;15.90;80.00
67974;DHT22;54756;51.140;6.952;2022-09-09T00:44:53;16.00;79.90
67974;DHT22;54756;51.140;6.952;2022-09-09T00:46:59;16.10;80.10
67974;DHT22;54756;51.140;6.952;2022-09-09T00:53:55;16.30;79.30
67974;DHT22;54756;51.140;6.952;2022-09-09T00:56:13;16.30;78.90
67974;DHT22;54756;51.140;6.952;2022-09-09T00:58:14;16.30;78.80
67974;DHT22;54756;51.140;6.952;2022-09-09T01:00:17;16.30;78.70
67974;DHT22;54756;51.140;6.952;2022-09-09T01:02:27;16.30;78.70
67974;DHT22;54756;51.140;6.952;2022-09-09T01:04:37;16.30;78.90
67974;DHT22;54756;51.140;6.952;2022-09-09T01:06:37;16.30;79.40
67974;DHT22;54756;51.140;6.952;2022-09-09T01:09:17;16.30;79.30
67974;DHT22;54756;51.140;6.952;2022-09-09T01:11:20;16.30;79.40
67974;DHT22;54756;51.140;6.952;2022-09-09T01:13:25;16.20;79.30
67974;DHT22;54756;51.140;6.952;2022-09-09T01:15:29;16.20;79.10
67974;DHT22;54756;51.140;6.952;2022-09-09T01:17:34;16.10;78.90
67974;DHT22;54756;51.140;6.952;2022-09-09T01:22:01;16.00;79.60
67974;DHT22;54756;51.140;6.952;2022-09-09T01:24:25;16.00;79.70
67974;DHT22;54756;51.140;6.952;2022-09-09T01:28:34;15.80;80.10
67974;DHT22;54756;51.140;6.952;2022-09-09T01:30:39;15.80;80.40
67974;DHT22;54756;51.140;6.952;2022-09-09T01:32:48;15.70;80.80
67974;DHT22;54756;51.140;6.952;2022-09-09T01:34:50;15.70;80.80
67974;DHT22;54756;51.140;6.952;2022-09-09T01:37:00;15.60;80.80
67974;DHT22;54756;51.140;6.952;2022-09-09T01:39:02;15.50;81.00
67974;DHT22;54756;51.140;6.952;2022-09-09T01:41:03;15.50;82.70
67974;DHT22;54756;51.140;6.952;2022-09-09T01:43:04;15.50;84.60
67974;DHT22;54756;51.140;6.952;2022-09-09T01:45:07;15.50;85.20
67974;DHT22;54756;51.140;6.952;2022-09-09T01:47:08;15.50;85.20
67974;DHT22;54756;51.140;6.952;2022-09-09T01:49:09;15.50;85.10
67974;DHT22;54756;51.140;6.952;2022-09-09T01:51:10;15.50;85.60
67974;DHT22;54756;51.140;6.952;2022-09-09T01:53:11;15.50;85.90
67974;DHT22;54756;51.140;6.952;2022-09-09T01:55:13;15.60;85.90
67974;DHT22;54756;51.140;6.952;2022-09-09T01:57:26;15.60;85.90
67974;DHT22;54756;51.140;6.952;2022-09-09T02:01:43;15.70;86.30
67974;DHT22;54756;51.140;6.952;2022-09-09T02:03:52;15.80;86.40
67974;DHT22;54756;51.140;6.952;2022-09-09T02:06:15;15.80;86.30
67974;DHT22;54756;51.140;6.952;2022-09-09T02:08:27;15.90;85.90
67974;DHT22;54756;51.140;6.952;2022-09-09T02:12:32;15.90;85.60
67974;DHT22;54756;51.140;6.952;2022-09-09T02:14:37;16.00;85.40
67974;DHT22;54756;51.140;6.952;2022-09-09T02:16:48;16.00;84.70
67974;DHT22;54756;51.140;6.952;2022-09-09T02:19:01;16.00;84.10
67974;DHT22;54756;51.140;6.952;2022-09-09T02:21:03;16.00;83.30
67974;DHT22;54756;51.140;6.952;2022-09-09T02:23:05;16.00;82.40
67974;DHT22;54756;51.140;6.952;2022-09-09T02:25:08;16.10;81.60
67974;DHT22;54756;51.140;6.952;2022-09-09T02:27:11;16.10;80.80
67974;DHT22;54756;51.140;6.952;2022-09-09T02:29:16;16.10;78.40
67974;DHT22;54756;51.140;6.952;2022-09-09T02:31:20;16.10;77.90
67974;DHT22;54756;51.140;6.952;2022-09-09T02:33:26;16.10;76.80
67974;DHT22;54756;51.140;6.952;2022-09-09T02:35:28;16.10;75.80
67974;DHT22;54756;51.140;6.952;2022-09-09T02:37:38;16.10;74.70
67974;DHT22;54756;51.140;6.952;2022-09-09T02:39:39;16.10;74.30
67974;DHT22;54756;51.140;6.952;2022-09-09T02:41:41;16.10;74.10
67974;DHT22;54756;51.140;6.952;2022-09-09T02:43:42;16.10;73.90
67974;DHT22;54756;51.140;6.952;2022-09-09T02:48:14;16.10;73.80
67974;DHT22;54756;51.140;6.952;2022-09-09T02:50:34;16.10;73.50
67974;DHT22;54756;51.140;6.952;2022-09-09T02:52:49;16.10;75.20
67974;DHT22;54756;51.140;6.952;2022-09-09T02:54:58;16.10;75.70
67974;DHT22;54756;51.140;6.952;2022-09-09T02:57:08;16.10;74.80
67974;DHT22;54756;51.140;6.952;2022-09-09T02:59:10;16.10;74.60
67974;DHT22;54756;51.140;6.952;2022-09-09T03:01:12;16.10;74.90
67974;DHT22;54756;51.140;6.952;2022-09-09T03:03:13;16.10;74.40
67974;DHT22;54756;51.140;6.952;2022-09-09T03:05:14;16.10;74.20
67974;DHT22;54756;51.140;6.952;2022-09-09T03:07:14;16.10;74.50
67974;DHT22;54756;51.140;6.952;2022-09-09T03:09:16;16.10;75.20
67974;DHT22;54756;51.140;6.952;2022-09-09T03:11:16;16.10;75.60
67974;DHT22;54756;51.140;6.952;2022-09-09T03:13:17;16.10;75.10
67974;DHT22;54756;51.140;6.952;2022-09-09T03:15:19;16.10;74.80
67974;DHT22;54756;51.140;6.952;2022-09-09T03:17:20;16.10;74.60
67974;DHT22;54756;51.140;6.952;2022-09-09T03:19:21;16.10;74.60
67974;DHT22;54756;51.140;6.952;2022-09-09T03:21:21;16.10;73.90
67974;DHT22;54756;51.140;6.952;2022-09-09T03:23:22;16.10;73.60
67974;DHT22;54756;51.140;6.952;2022-09-09T03:25:23;16.10;73.50
67974;DHT22;54756;51.140;6.952;2022-09-09T03:27:25;16.10;73.20
67974;DHT22;54756;51.140;6.952;2022-09-09T03:29:25;16.10;73.50
67974;DHT22;54756;51.140;6.952;2022-09-09T03:31:26;16.00;73.40
67974;DHT22;54756;51.140;6.952;2022-09-09T03:33:30;16.00;73.40
67974;DHT22;54756;51.140;6.952;2022-09-09T03:35:31;16.00;74.70
67974;DHT22;54756;51.140;6.952;2022-09-09T03:37:32;16.00;74.30
67974;DHT22;54756;51.140;6.952;2022-09-09T03:39:32;16.00;74.70
67974;DHT22;54756;51.140;6.952;2022-09-09T03:41:33;16.00;74.30
67974;DHT22;54756;51.140;6.952;2022-09-09T03:43:34;16.00;74.40
67974;DHT22;54756;51.140;6.952;2022-09-09T03:45:35;16.00;74.70
67974;DHT22;54756;51.140;6.952;2022-09-09T03:47:36;16.00;74.50
67974;DHT22;54756;51.140;6.952;2022-09-09T03:49:37;16.00;74.40
67974;DHT22;54756;51.140;6.952;2022-09-09T03:51:37;16.00;75.20
67974;DHT22;54756;51.140;6.952;2022-09-09T03:53:38;16.00;74.90
67974;DHT22;54756;51.140;6.952;2022-09-09T03:55:44;16.00;75.30
67974;DHT22;54756;51.140;6.952;2022-09-09T03:57:45;16.00;75.50
67974;DHT22;54756;51.140;6.952;2022-09-09T03:59:46;16.00;76.70
67974;DHT22;54756;51.140;6.952;2022-09-09T04:01:47;16.00;76.50
67974;DHT22;54756;51.140;6.952;2022-09-09T04:03:47;16.00;76.30
67974;DHT22;54756;51.140;6.952;2022-09-09T04:05:49;16.00;76.20
67974;DHT22;54756;51.140;6.952;2022-09-09T04:07:49;16.00;76.80
67974;DHT22;54756;51.140;6.952;2022-09-09T04:09:51;15.90;76.80
67974;DHT22;54756;51.140;6.952;2022-09-09T04:11:52;16.00;76.20
67974;DHT22;54756;51.140;6.952;2022-09-09T04:13:53;16.00;76.20
67974;DHT22;54756;51.140;6.952;2022-09-09T04:15:56;16.00;76.30
67974;DHT22;54756;51.140;6.952;2022-09-09T04:17:57;16.00;76.70
67974;DHT22;54756;51.140;6.952;2022-09-09T04:19:57;16.00;76.30
67974;DHT22;54756;51.140;6.952;2022-09-09T04:21:58;16.00;75.80
67974;DHT22;54756;51.140;6.952;2022-09-09T04:23:59;16.10;75.70
67974;DHT22;54756;51.140;6.952;2022-09-09T04:26:01;16.10;75.90
67974;DHT22;54756;51.140;6.952;2022-09-09T04:28:02;16.10;75.40
67974;DHT22;54756;51.140;6.952;2022-09-09T04:30:03;16.10;74.90
67974;DHT22;54756;51.140;6.952;2022-09-09T04:32:04;16.10;75.70
67974;DHT22;54756;51.140;6.952;2022-09-09T04:34:05;16.10;75.20
67974;DHT22;54756;51.140;6.952;2022-09-09T04:36:07;16.10;74.90
67974;DHT22;54756;51.140;6.952;2022-09-09T04:38:08;16.10;75.10
67974;DHT22;54756;51.140;6.952;2022-09-09T04:40:09;16.10;75.20
67974;DHT22;54756;51.140;6.952;2022-09-09T04:42:10;16.10;74.70
67974;DHT22;54756;51.140;6.952;2022-09-09T04:44:11;16.10;74.40
67974;DHT22;54756;51.140;6.952;2022-09-09T04:46:11;16.10;74.80
67974;DHT22;54756;51.140;6.952;2022-09-09T04:48:12;16.10;75.70
67974;DHT22;54756;51.140;6.952;2022-09-09T04:50:12;16.10;75.50
67974;DHT22;54756;51.140;6.952;2022-09-09T04:52:13;16.10;75.00
67974;DHT22;54756;51.140;6.952;2022-09-09T04:54:14;16.10;75.00
67974;DHT22;54756;51.140;6.952;2022-09-09T04:56:16;16.10;75.20
67974;DHT22;54756;51.140;6.952;2022-09-09T04:58:17;16.10;75.10
67974;DHT22;54756;51.140;6.952;2022-09-09T05:00:17;16.10;75.10
67974;DHT22;54756;51.140;6.952;2022-09-09T05:02:19;16.10;75.30
67974;DHT22;54756;51.140;6.952;2022-09-09T05:04:19;16.10;75.80
67974;DHT22;54756;51.140;6.952;2022-09-09T05:06:21;16.10;75.50
67974;DHT22;54756;51.140;6.952;2022-09-09T05:08:22;16.10;75.50
67974;DHT22;54756;51.140;6.952;2022-09-09T05:10:23;16.20;75.10
67974;DHT22;54756;51.140;6.952;2022-09-09T05:12:24;16.20;75.70
67974;DHT22;54756;51.140;6.952;2022-09-09T05:14:25;16.20;75.60
67974;DHT22;54756;51.140;6.952;2022-09-09T05:16:27;16.20;76.40
67974;DHT22;54756;51.140;6.952;2022-09-09T05:18:28;16.20;76.00
67974;DHT22;54756;51.140;6.952;2022-09-09T05:20:29;16.20;75.80
67974;DHT22;54756;51.140;6.952;2022-09-09T05:22:29;16.20;75.30
67974;DHT22;54756;51.140;6.952;2022-09-09T05:24:30;16.20;74.80
67974;DHT22;54756;51.140;6.952;2022-09-09T05:26:33;16.30;74.70
67974;DHT22;54756;51.140;6.952;2022-09-09T05:28:34;16.30;74.80
67974;DHT22;54756;51.140;6.952;2022-09-09T05:30:36;16.30;74.70
67974;DHT22;54756;51.140;6.952;2022-09-09T05:32:36;16.30;74.40
67974;DHT22;54756;51.140;6.952;2022-09-09T05:34:37;16.30;74.40
67974;DHT22;54756;51.140;6.952;2022-09-09T05:36:37;16.30;74.70
67974;DHT22;54756;51.140;6.952;2022-09-09T05:38:38;16.30;74.40
67974;DHT22;54756;51.140;6.952;2022-09-09T05:40:47;16.40;74.50
67974;DHT22;54756;51.140;6.952;2022-09-09T05:42:48;16.40;74.20
67974;DHT22;54756;51.140;6.952;2022-09-09T05:44:48;16.40;74.60
67974;DHT22;54756;51.140;6.952;2022-09-09T05:46:51;16.40;74.50
67974;DHT22;54756;51.140;6.952;2022-09-09T05:48:52;16.40;74.40
67974;DHT22;54756;51.140;6.952;2022-09-09T05:50:53;16.40;73.80
67974;DHT22;54756;51.140;6.952;2022-09-09T05:52:54;16.40;73.80
67974;DHT22;54756;51.140;6.952;2022-09-09T05:54:55;16.50;73.20
67974;DHT22;54756;51.140;6.952;2022-09-09T05:56:57;16.50;73.10
67974;DHT22;54756;51.140;6.952;2022-09-09T05:58:58;16.50;72.40
67974;DHT22;54756;51.140;6.952;2022-09-09T06:01:08;16.60;72.30
67974;DHT22;54756;51.140;6.952;2022-09-09T06:03:13;16.60;72.00
67974;DHT22;54756;51.140;6.952;2022-09-09T06:05:13;16.60;71.90
67974;DHT22;54756;51.140;6.952;2022-09-09T06:07:15;16.60;72.10
67974;DHT22;54756;51.140;6.952;2022-09-09T06:09:16;16.70;71.70
67974;DHT22;54756;51.140;6.952;2022-09-09T06:11:21;16.60;71.20
67974;DHT22;54756;51.140;6.952;2022-09-09T06:13:22;16.70;71.90
67974;DHT22;54756;51.140;6.952;2022-09-09T06:15:23;16.70;70.50
67974;DHT22;54756;51.140;6.952;2022-09-09T06:17:24;16.80;70.20
67974;DHT22;54756;51.140;6.952;2022-09-09T06:19:25;16.80;69.30
67974;DHT22;54756;51.140;6.952;2022-09-09T06:21:29;16.90;69.00
67974;DHT22;54756;51.140;6.952;2022-09-09T06:23:31;16.90;68.70
67974;DHT22;54756;51.140;6.952;2022-09-09T06:25:31;16.90;68.40
67974;DHT22;54756;51.140;6.952;2022-09-09T06:27:34;16.90;68.40
67974;DHT22;54756;51.140;6.952;2022-09-09T06:29:35;16.90;68.30
67974;DHT22;54756;51.140;6.952;2022-09-09T06:31:36;17.00;68.50
67974;DHT22;54756;51.140;6.952;2022-09-09T06:33:39;17.00;68.50
67974;DHT22;54756;51.140;6.952;2022-09-09T06:35:41;17.00;68.30
67974;DHT22;54756;51.140;6.952;2022-09-09T06:37:45;17.10;68.20
67974;DHT22;54756;51.140;6.952;2022-09-09T06:39:45;17.10;68.00
67974;DHT22;54756;51.140;6.952;2022-09-09T06:41:46;17.10;67.70
67974;DHT22;54756;51.140;6.952;2022-09-09T06:43:47;17.00;67.30
67974;DHT22;54756;51.140;6.952;2022-09-09T06:48:00;17.00;67.60
67974;DHT22;54756;51.140;6.952;2022-09-09T06:50:01;17.00;67.90
67974;DHT22;54756;51.140;6.952;2022-09-09T06:52:05;17.10;68.20
67974;DHT22;54756;51.140;6.952;2022-09-09T06:54:09;17.20;68.20
67974;DHT22;54756;51.140;6.952;2022-09-09T06:56:30;17.40;67.40
67974;DHT22;54756;51.140;6.952;2022-09-09T06:58:31;17.50;65.50
67974;DHT22;54756;51.140;6.952;2022-09-09T07:00:32;17.60;64.20
67974;DHT22;54756;51.140;6.952;2022-09-09T07:02:33;17.60;57.40
67974;DHT22;54756;51.140;6.952;2022-09-09T07:04:39;17.70;56.10
67974;DHT22;54756;51.140;6.952;2022-09-09T07:06:41;17.70;55.80
67974;DHT22;54756;51.140;6.952;2022-09-09T07:08:43;17.80;54.30
67974;DHT22;54756;51.140;6.952;2022-09-09T07:10:44;17.80;54.10
67974;DHT22;54756;51.140;6.952;2022-09-09T07:13:03;17.80;53.30
67974;DHT22;54756;51.140;6.952;2022-09-09T07:15:05;18.00;54.40
67974;DHT22;54756;51.140;6.952;2022-09-09T07:17:06;18.20;53.00
67974;DHT22;54756;51.140;6.952;2022-09-09T07:19:06;18.40;51.00
67974;DHT22;54756;51.140;6.952;2022-09-09T07:21:12;18.50;46.10
67974;DHT22;54756;51.140;6.952;2022-09-09T07:23:13;18.60;41.10
67974;DHT22;54756;51.140;6.952;2022-09-09T07:25:14;18.70;42.80
67974;DHT22;54756;51.140;6.952;2022-09-09T07:27:17;18.80;43.90
67974;DHT22;54756;51.140;6.952;2022-09-09T07:29:17;18.90;44.70
67974;DHT22;54756;51.140;6.952;2022-09-09T07:31:20;19.00;39.10
67974;DHT22;54756;51.140;6.952;2022-09-09T07:33:21;19.10;37.50
67974;DHT22;54756;51.140;6.952;2022-09-09T07:35:22;19.20;37.90
67974;DHT22;54756;51.140;6.952;2022-09-09T07:37:23;19.30;34.80
67974;DHT22;54756;51.140;6.952;2022-09-09T07:39:24;19.30;32.60
67974;DHT22;54756;51.140;6.952;2022-09-09T07:41:31;19.30;29.00
67974;DHT22;54756;51.140;6.952;2022-09-09T07:43:34;19.30;26.90
67974;DHT22;54756;51.140;6.952;2022-09-09T07:45:35;19.30;26.90
67974;DHT22;54756;51.140;6.952;2022-09-09T07:47:36;19.30;28.40
67974;DHT22;54756;51.140;6.952;2022-09-09T07:49:36;19.40;24.40
67974;DHT22;54756;51.140;6.952;2022-09-09T07:51:42;19.50;24.50
67974;DHT22;54756;51.140;6.952;2022-09-09T07:53:43;19.60;23.70
67974;DHT22;54756;51.140;6.952;2022-09-09T07:55:44;19.60;22.20
67974;DHT22;54756;51.140;6.952;2022-09-09T07:57:44;19.70;24.10
67974;DHT22;54756;51.140;6.952;2022-09-09T07:59:45;19.80;23.10
67974;DHT22;54756;51.140;6.952;2022-09-09T08:01:49;19.90;24.00
67974;DHT22;54756;51.140;6.952;2022-09-09T08:04:14;20.00;23.50
67974;DHT22;54756;51.140;6.952;2022-09-09T08:06:15;20.10;11.60
67974;DHT22;54756;51.140;6.952;2022-09-09T08:08:16;20.10;17.30
67974;DHT22;54756;51.140;6.952;2022-09-09T08:10:17;20.10;15.10
67974;DHT22;54756;51.140;6.952;2022-09-09T08:12:18;20.20;15.40
67974;DHT22;54756;51.140;6.952;2022-09-09T08:14:19;20.20;16.30
67974;DHT22;54756;51.140;6.952;2022-09-09T08:16:26;20.20;14.70
67974;DHT22;54756;51.140;6.952;2022-09-09T08:18:27;20.20;8.00
67974;DHT22;54756;51.140;6.952;2022-09-09T08:20:28;20.10;9.70
67974;DHT22;54756;51.140;6.952;2022-09-09T08:22:29;20.10;10.90
67974;DHT22;54756;51.140;6.952;2022-09-09T08:24:32;20.00;12.40
67974;DHT22;54756;51.140;6.952;2022-09-09T08:26:41;20.10;13.30
67974;DHT22;54756;51.140;6.952;2022-09-09T08:28:43;20.20;10.60
67974;DHT22;54756;51.140;6.952;2022-09-09T08:30:50;20.30;10.60
67974;DHT22;54756;51.140;6.952;2022-09-09T08:32:51;20.40;4.40
67974;DHT22;54756;51.140;6.952;2022-09-09T08:34:51;20.50;2.60
67974;DHT22;54756;51.140;6.952;2022-09-09T08:36:52;20.60;4.00
67974;DHT22;54756;51.140;6.952;2022-09-09T08:38:55;20.60;1.00
67974;DHT22;54756;51.140;6.952;2022-09-09T08:41:55;20.70;1.00
67974;DHT22;54756;51.140;6.952;2022-09-09T08:43:28;20.70;1.00
67974;DHT22;54756;51.140;6.952;2022-09-09T08:45:37;20.80;1.00
67974;DHT22;54756;51.140;6.952;2022-09-09T08:50:24;21.00;1.00
67974;DHT22;54756;51.140;6.952;2022-09-09T08:52:50;21.00;1.00
67974;DHT22;54756;51.140;6.952;2022-09-09T08:54:52;20.80;1.00
67974;DHT22;54756;51.140;6.952;2022-09-09T08:56:56;20.70;1.00
67974;DHT22;54756;51.140;6.952;2022-09-09T08:58:56;20.70;1.00
67974;DHT22;54756;51.140;6.952;2022-09-09T09:03:09;21.00;1.00
67974;DHT22;54756;51.140;6.952;2022-09-09T09:07:32;21.20;1.00
67974;DHT22;54756;51.140;6.952;2022-09-09T09:11:55;21.40;1.00
67974;DHT22;54756;51.140;6.952;2022-09-09T09:14:07;21.60;1.00
67974;DHT22;54756;51.140;6.952;2022-09-09T09:18:22;21.60;1.00
67974;DHT22;54756;51.140;6.952;2022-09-09T09:22:51;21.40;1.00
67974;DHT22;54756;51.140;6.952;2022-09-09T09:24:55;21.40;1.00
67974;DHT22;54756;51.140;6.952;2022-09-09T09:26:56;21.40;1.00
67974;DHT22;54756;51.140;6.952;2022-09-09T09:28:58;21.40;1.00
67974;DHT22;54756;51.140;6.952;2022-09-09T09:31:06;21.40;1.00
67974;DHT22;54756;51.140;6.952;2022-09-09T09:35:20;21.40;1.00
67974;DHT22;54756;51.140;6.952;2022-09-09T09:37:32;21.30;1.00
67974;DHT22;54756;51.140;6.952;2022-09-09T09:39:35;21.30;1.00
67974;DHT22;54756;51.140;6.952;2022-09-09T09:41:40;21.20;1.00
67974;DHT22;54756;51.140;6.952;2022-09-09T09:43:41;21.20;1.00
67974;DHT22;54756;51.140;6.952;2022-09-09T09:45:45;21.20;1.00
67974;DHT22;54756;51.140;6.952;2022-09-09T09:47:46;21.30;1.00
67974;DHT22;54756;51.140;6.952;2022-09-09T09:51:59;21.20;1.00
67974;DHT22;54756;51.140;6.952;2022-09-09T09:56:26;21.40;1.00
67974;DHT22;54756;51.140;6.952;2022-09-09T09:58:33;21.70;1.00
67974;DHT22;54756;51.140;6.952;2022-09-09T10:00:51;21.80;1.00
67974;DHT22;54756;51.140;6.952;2022-09-09T10:02:52;21.90;1.00
67974;DHT22;54756;51.140;6.952;2022-09-09T10:05:05;21.90;1.00
67974;DHT22;54756;51.140;6.952;2022-09-09T10:07:24;21.90;1.00
67974;DHT22;54756;51.140;6.952;2022-09-09T10:09:29;21.90;1.00
67974;DHT22;54756;51.140;6.952;2022-09-09T10:11:50;21.90;1.00
67974;DHT22;54756;51.140;6.952;2022-09-09T10:14:16;22.10;1.00
67974;DHT22;54756;51.140;6.952;2022-09-09T10:16:29;22.50;1.00
67974;DHT22;54756;51.140;6.952;2022-09-09T10:28:33;23.70;1.00
67974;DHT22;54756;51.140;6.952;2022-09-09T10:30:46;24.00;1.00
67974;DHT22;54756;51.140;6.952;2022-09-09T10:35:19;24.20;1.00
67974;DHT22;54756;51.140;6.952;2022-09-09T10:37:42;24.30;1.00
67974;DHT22;54756;51.140;6.952;2022-09-09T10:39:45;24.40;1.00
67974;DHT22;54756;51.140;6.952;2022-09-09T10:41:58;24.40;1.00
67974;DHT22;54756;51.140;6.952;2022-09-09T10:44:12;24.50;1.00
67974;DHT22;54756;51.140;6.952;2022-09-09T10:53:28;24.50;1.00
67974;DHT22;54756;51.140;6.952;2022-09-09T10:55:41;24.40;1.00
67974;DHT22;54756;51.140;6.952;2022-09-09T10:57:43;24.10;1.00
67974;DHT22;54756;51.140;6.952;2022-09-09T10:59:50;23.80;1.00
67974;DHT22;54756;51.140;6.952;2022-09-09T11:02:26;23.60;1.00
67974;DHT22;54756;51.140;6.952;2022-09-09T11:04:32;23.50;1.00
67974;DHT22;54756;51.140;6.952;2022-09-09T11:06:39;23.40;1.00
67974;DHT22;54756;51.140;6.952;2022-09-09T11:08:42;23.40;1.00
67974;DHT22;54756;51.140;6.952;2022-09-09T11:13:22;23.30;1.00
67974;DHT22;54756;51.140;6.952;2022-09-09T11:15:31;23.50;1.00
67974;DHT22;54756;51.140;6.952;2022-09-09T11:17:49;23.50;1.00
67974;DHT22;54756;51.140;6.952;2022-09-09T11:19:50;23.60;1.00
67974;DHT22;54756;51.140;6.952;2022-09-09T11:21:52;23.70;1.00
67974;DHT22;54756;51.140;6.952;2022-09-09T11:24:03;23.70;1.00
67974;DHT22;54756;51.140;6.952;2022-09-09T11:26:06;23.50;1.00
67974;DHT22;54756;51.140;6.952;2022-09-09T11:28:46;23.20;1.00
67974;DHT22;54756;51.140;6.952;2022-09-09T11:34:08;21.80;1.00
67974;DHT22;54756;51.140;6.952;2022-09-09T11:36:36;20.70;1.00
67974;DHT22;54756;51.140;6.952;2022-09-09T11:38:45;19.70;7.40
67974;DHT22;54756;51.140;6.952;2022-09-09T11:41:04;19.20;4.70
67974;DHT22;54756;51.140;6.952;2022-09-09T11:43:21;19.10;11.80
67974;DHT22;54756;51.140;6.952;2022-09-09T11:45:26;19.50;16.40
67974;DHT22;54756;51.140;6.952;2022-09-09T11:47:30;19.60;9.20
67974;DHT22;54756;51.140;6.952;2022-09-09T11:51:38;19.80;9.10
67974;DHT22;54756;51.140;6.952;2022-09-09T11:56:30;20.30;1.00
67974;DHT22;54756;51.140;6.952;2022-09-09T11:58:37;20.40;1.00
67974;DHT22;54756;51.140;6.952;2022-09-09T12:00:43;20.40;1.00
67974;DHT22;54756;51.140;6.952;2022-09-09T12:02:50;20.40;1.00
67974;DHT22;54756;51.140;6.952;2022-09-09T12:05:04;20.60;1.00
67974;DHT22;54756;51.140;6.952;2022-09-09T12:11:32;20.60;1.00
67974;DHT22;54756;51.140;6.952;2022-09-09T12:13:33;20.40;1.00
67974;DHT22;54756;51.140;6.952;2022-09-09T12:15:34;20.40;1.00
67974;DHT22;54756;51.140;6.952;2022-09-09T12:17:49;20.40;1.00
67974;DHT22;54756;51.140;6.952;2022-09-09T12:20:36;20.50;1.00
67974;DHT22;54756;51.140;6.952;2022-09-09T12:25:31;21.00;1.00
67974;DHT22;54756;51.140;6.952;2022-09-09T12:28:24;21.40;1.00
67974;DHT22;54756;51.140;6.952;2022-09-09T12:30:17;21.50;1.00
67974;DHT22;54756;51.140;6.952;2022-09-09T12:32:24;21.70;1.00
67974;DHT22;54756;51.140;6.952;2022-09-09T12:34:47;21.70;1.00
67974;DHT22;54756;51.140;6.952;2022-09-09T12:36:55;21.80;1.00
67974;DHT22;54756;51.140;6.952;2022-09-09T12:39:10;22.10;1.00
67974;DHT22;54756;51.140;6.952;2022-09-09T12:41:24;22.50;1.00
67974;DHT22;54756;51.140;6.952;2022-09-09T12:43:27;23.20;1.00
67974;DHT22;54756;51.140;6.952;2022-09-09T12:45:32;24.30;1.00
67974;DHT22;54756;51.140;6.952;2022-09-09T12:47:42;25.30;1.00
67974;DHT22;54756;51.140;6.952;2022-09-09T12:49:47;25.40;1.00
67974;DHT22;54756;51.140;6.952;2022-09-09T12:51:50;25.00;1.00
67974;DHT22;54756;51.140;6.952;2022-09-09T12:53:51;24.30;1.00
67974;DHT22;54756;51.140;6.952;2022-09-09T12:56:19;23.60;1.00
67974;DHT22;54756;51.140;6.952;2022-09-09T12:58:20;22.90;1.00
67974;DHT22;54756;51.140;6.952;2022-09-09T13:00:23;22.00;1.00
67974;DHT22;54756;51.140;6.952;2022-09-09T13:02:26;20.80;14.90
67974;DHT22;54756;51.140;6.952;2022-09-09T13:04:27;19.60;31.80
67974;DHT22;54756;51.140;6.952;2022-09-09T13:06:32;19.00;42.30
67974;DHT22;54756;51.140;6.952;2022-09-09T13:08:33;18.80;48.50
67974;DHT22;54756;51.140;6.952;2022-09-09T13:10:50;19.70;58.90
67974;DHT22;54756;51.140;6.952;2022-09-09T13:12:55;21.50;60.00
67974;DHT22;54756;51.140;6.952;2022-09-09T13:14:56;23.60;55.70
67974;DHT22;54756;51.140;6.952;2022-09-09T13:16:59;24.40;40.90
67974;DHT22;54756;51.140;6.952;2022-09-09T13:19:02;24.20;32.90
67974;DHT22;54756;51.140;6.952;2022-09-09T13:21:06;23.30;31.20
67974;DHT22;54756;51.140;6.952;2022-09-09T13:23:11;22.50;36.10
67974;DHT22;54756;51.140;6.952;2022-09-09T13:27:28;21.50;46.60
67974;DHT22;54756;51.140;6.952;2022-09-09T13:29:30;21.10;35.70
67974;DHT22;54756;51.140;6.952;2022-09-09T13:31:36;20.80;45.30
67974;DHT22;54756;51.140;6.952;2022-09-09T13:33:37;20.50;43.70
67974;DHT22;54756;51.140;6.952;2022-09-09T13:35:57;20.30;46.80
67974;DHT22;54756;51.140;6.952;2022-09-09T13:38:06;20.40;47.80
67974;DHT22;54756;51.140;6.952;2022-09-09T13:40:20;21.30;48.90
67974;DHT22;54756;51.140;6.952;2022-09-09T13:42:33;23.20;43.30
67974;DHT22;54756;51.140;6.952;2022-09-09T13:44:39;26.80;29.70
67974;DHT22;54756;51.140;6.952;2022-09-09T13:46:41;30.20;1.00
67974;DHT22;54756;51.140;6.952;2022-09-09T13:48:42;32.10;1.00
67974;DHT22;54756;51.140;6.952;2022-09-09T13:51:03;31.50;1.00
67974;DHT22;54756;51.140;6.952;2022-09-09T13:53:07;31.30;1.00
67974;DHT22;54756;51.140;6.952;2022-09-09T13:55:09;33.20;1.00
67974;DHT22;54756;51.140;6.952;2022-09-09T13:59:19;36.30;1.00
67974;DHT22;54756;51.140;6.952;2022-09-09T14:01:20;36.00;1.00
67974;DHT22;54756;51.140;6.952;2022-09-09T14:03:24;34.80;1.00
67974;DHT22;54756;51.140;6.952;2022-09-09T14:05:24;33.80;1.00
67974;DHT22;54756;51.140;6.952;2022-09-09T14:07:25;33.50;1.00
67974;DHT22;54756;51.140;6.952;2022-09-09T14:09:26;32.80;1.00
67974;DHT22;54756;51.140;6.952;2022-09-09T14:11:26;32.40;1.00
67974;DHT22;54756;51.140;6.952;2022-09-09T14:13:27;31.60;1.00
67974;DHT22;54756;51.140;6.952;2022-09-09T14:15:27;30.20;1.00
67974;DHT22;54756;51.140;6.952;2022-09-09T14:17:28;28.80;1.00
67974;DHT22;54756;51.140;6.952;2022-09-09T14:19:30;27.70;1.00
67974;DHT22;54756;51.140;6.952;2022-09-09T14:21:31;26.80;1.00
67974;DHT22;54756;51.140;6.952;2022-09-09T14:23:32;26.20;1.00
67974;DHT22;54756;51.140;6.952;2022-09-09T14:25:33;27.10;1.00
67974;DHT22;54756;51.140;6.952;2022-09-09T14:27:34;28.00;1.00
67974;DHT22;54756;51.140;6.952;2022-09-09T14:29:34;30.30;1.00
67974;DHT22;54756;51.140;6.952;2022-09-09T14:31:35;30.20;1.00
67974;DHT22;54756;51.140;6.952;2022-09-09T14:33:39;29.50;1.00
67974;DHT22;54756;51.140;6.952;2022-09-09T14:35:40;28.60;1.00
67974;DHT22;54756;51.140;6.952;2022-09-09T14:37:41;27.70;1.00
67974;DHT22;54756;51.140;6.952;2022-09-09T14:39:43;27.00;1.00
67974;DHT22;54756;51.140;6.952;2022-09-09T14:41:44;26.20;1.00
67974;DHT22;54756;51.140;6.952;2022-09-09T14:43:46;25.50;1.00